Latest Weather Observations for Mount Lofty

IDS60801

Issued at 6:31 pm CDT Tuesday 28 February 2017 (issued every 30 minutes, with the page automatically refreshed every 10 minutes)

About weather observations | Map of weather stations | Latest weather observations for SA | Other Formats
Station Details ID: 023842 Name: MOUNT LOFTY Lat: -34.98 Lon: 138.71 Height: 685.0 m
Data from the previous 72 hours. | See also: Recent months at Mount Lofty
Date/Time
CDT
Temp
°C
App
Temp
°C
Dew
Point
°C
Rel
Hum
%
Delta-T
°C
Wind Press
QNH
hPa
Press
MSL
hPa
Rain since
9am
mm
Dir  Spd
km/h
Gust
km/h
Spd
kts
Gust
kts
28/06:00pm 30.4 29.6 9.8 28 12.0 SE 4 9 2 5 - - 0.0
28/05:30pm 30.0 28.6 9.0 27 12.0 S 6 11 3 6 - - 0.0
28/05:00pm 30.3 29.3 10.3 29 11.7 SSE 6 11 3 6 - - 0.0
28/04:30pm 29.0 28.1 10.6 32 10.8 S 6 13 3 7 - - 0.0
28/04:00pm 30.6 30.0 8.9 26 12.5 ESE 2 9 1 5 - - 0.0
28/03:30pm 27.9 28.9 13.1 40 9.0 CALM 0 0 0 0 - - 0.0
28/03:00pm 27.8 27.6 10.5 34 10.1 ESE 2 6 1 3 - - 0.0
28/02:30pm 28.5 27.8 8.7 29 11.2 NE 2 4 1 2 - - 0.0
28/02:00pm 29.0 28.3 8.7 28 11.5 NW 2 6 1 3 - - 0.0
28/01:30pm 31.0 29.5 9.3 26 12.6 NNW 7 13 4 7 - - 0.0
28/01:00pm 30.6 28.9 8.3 25 12.7 N 7 13 4 7 - - 0.0
28/12:30pm 29.9 27.8 8.3 26 12.2 NNW 9 19 5 10 - - 0.0
28/12:00pm 29.5 27.8 8.5 27 11.9 NNW 7 11 4 6 - - 0.0
28/11:30am 28.8 27.0 7.9 27 11.7 N 7 15 4 8 - - 0.0
28/11:00am 28.3 26.7 8.6 29 11.1 NNE 7 13 4 7 - - 0.0
28/10:30am 27.2 25.1 8.1 30 10.6 NNE 9 17 5 9 - - 0.0
28/10:00am 27.0 25.1 7.5 29 10.7 ENE 7 19 4 10 - - 0.0
28/09:30am 25.9 23.4 6.5 29 10.4 NE 9 17 5 9 - - 0.0
28/09:00am 25.3 22.8 6.5 30 10.1 NE 9 20 5 11 - - -
28/08:30am 24.3 21.8 6.6 32 9.5 NE 9 26 5 14 - - -
28/08:00am 23.8 20.7 5.7 31 9.5 ENE 11 26 6 14 - - -
28/07:30am 23.5 20.8 5.4 31 9.4 ENE 9 20 5 11 - - -
28/07:00am 23.0 20.3 5.4 32 9.1 ENE 9 22 5 12 - - -
28/06:30am 23.1 20.3 5.1 31 9.3 E 9 22 5 12 - - -
28/06:00am 22.9 20.1 5.3 32 9.1 E 9 20 5 11 - - -
28/05:30am 22.7 20.1 6.0 34 8.7 E 9 22 5 12 - - -
28/05:00am 22.4 20.1 7.4 38 8.0 ESE 9 20 5 11 - - -
28/04:30am 22.1 20.4 8.2 41 7.6 E 7 17 4 9 - - -
28/04:00am 21.8 19.9 9.0 44 7.0 ESE 9 19 5 10 - - -
28/03:30am 21.3 20.0 9.9 48 6.4 ESE 7 19 4 10 - - -
28/03:00am 20.5 19.3 10.3 52 5.7 ESE 7 15 4 8 - - 0.0
28/02:30am 20.2 18.6 10.3 53 5.5 ESE 9 15 5 8 - - -
28/02:00am 20.0 18.5 10.4 54 5.4 ESE 9 19 5 10 - - -
28/01:30am 20.4 18.3 9.9 51 5.8 ESE 11 20 6 11 - - -
28/01:00am 21.1 18.1 9.4 47 6.5 ESE 15 24 8 13 - - -
28/12:30am 20.6 17.7 9.8 50 6.0 ESE 15 26 8 14 - - -
28/12:00am 20.2 17.3 9.7 51 5.8 ESE 15 28 8 15 - - -
 
Date/Time
CDT
Temp
°C
App
Temp
°C
Dew
Point
°C
Rel
Hum
%
Delta-T
°C
Wind Press
QNH
hPa
Press
MSL
hPa
Rain since
9am
mm
Dir  Spd
km/h
Gust
km/h
Spd
kts
Gust
kts
27/11:30pm 19.5 17.2 10.5 56 5.0 ESE 13 20 7 11 - - -
27/11:00pm 19.3 16.9 10.0 55 5.1 ESE 13 22 7 12 - - -
27/10:30pm 20.0 18.3 9.9 52 5.6 ESE 9 22 5 12 - - -
27/10:00pm 19.6 17.2 10.0 54 5.3 ESE 13 20 7 11 - - -
27/09:30pm 19.8 17.9 10.5 55 5.2 ESE 11 19 6 10 - - -
27/09:00pm 20.6 19.2 12.1 58 4.9 ESE 11 22 6 12 - - -
27/08:30pm 21.4 20.6 12.8 58 5.0 ESE 9 19 5 10 - - -
27/08:00pm 22.9 22.2 13.1 54 5.8 ESE 9 17 5 9 - - -
27/07:30pm 24.9 24.4 12.8 47 7.2 ESE 7 15 4 8 - - -
27/07:00pm 26.3 25.9 13.1 44 7.9 SE 7 13 4 7 - - -
27/06:30pm 27.4 27.6 14.1 44 8.2 SE 6 9 3 5 - - -
27/06:00pm 28.3 27.3 12.2 37 9.6 SE 9 15 5 8 - - -
27/05:30pm 30.3 28.9 8.7 26 12.3 E 6 11 3 6 - - -
27/05:00pm 29.6 28.7 9.2 28 11.7 ENE 4 7 2 4 - - -
27/04:30pm 29.3 28.1 9.4 29 11.4 NE 6 11 3 6 - - 0.0
27/04:00pm 28.2 27.1 9.9 32 10.6 NE 6 11 3 6 - - 0.0
27/03:30pm 28.4 27.6 11.0 34 10.2 ENE 6 15 3 8 - - 0.0
27/03:00pm 30.5 30.3 12.9 34 10.7 E 6 13 3 7 - - 0.0
27/02:30pm 29.4 29.1 11.5 33 10.6 ENE 4 13 2 7 - - 0.0
27/02:00pm 28.9 27.6 10.1 31 10.9 NNE 7 19 4 10 - - 0.0
27/01:30pm 29.6 29.0 11.6 33 10.7 N 6 11 3 6 - - 0.0
27/01:00pm 29.5 28.8 12.0 34 10.5 E 7 20 4 11 - - 0.0
27/12:30pm 27.8 27.5 12.6 39 9.1 NE 6 13 3 7 - - 0.0
27/12:00pm 27.6 27.5 13.2 41 8.7 E 6 13 3 7 - - 0.0
27/11:30am 27.1 27.3 14.1 44 8.0 ESE 6 13 3 7 - - 0.0
27/11:00am 25.2 24.4 11.7 43 7.9 ESE 7 17 4 9 - - 0.0
27/10:30am 24.3 23.3 10.9 43 7.7 ESE 7 15 4 8 - - 0.0
27/10:00am 23.9 23.0 11.3 45 7.3 ESE 7 13 4 7 - - 0.0
27/09:30am 22.8 21.0 9.6 43 7.4 ESE 9 17 5 9 - - 0.0
27/09:00am 21.3 19.2 8.2 43 7.1 ESE 9 19 5 10 - - 0.2
27/08:30am 18.7 16.4 7.5 48 5.9 ESE 9 15 5 8 - - 0.2
27/08:00am 17.9 15.5 7.0 49 5.6 ESE 9 15 5 8 - - 0.2
27/07:30am 17.0 14.7 7.6 54 4.9 ESE 9 17 5 9 - - 0.2
27/07:00am 16.5 14.3 8.0 57 4.5 ESE 9 17 5 9 - - 0.2
27/06:30am 15.9 13.6 8.9 63 3.7 ESE 11 17 6 9 - - 0.2
27/06:00am 15.4 13.6 9.5 68 3.2 ESE 9 15 5 8 - - 0.2
27/05:30am 15.1 13.3 9.5 69 3.0 ESE 9 17 5 9 - - 0.2
27/05:00am 14.5 12.4 9.7 73 2.6 ESE 11 17 6 9 - - 0.2
27/04:30am 13.3 11.3 8.6 73 2.4 ESE 9 17 5 9 - - 0.2
27/04:00am 13.7 10.9 7.0 64 3.4 ESE 11 17 6 9 - - 0.2
27/03:30am 13.3 10.6 7.5 68 2.9 ESE 11 20 6 11 - - 0.2
27/03:00am 12.1 9.8 8.9 81 1.7 ESE 11 20 6 11 - - 0.2
27/02:30am 14.2 11.5 7.3 63 3.5 ESE 11 20 6 11 - - 0.2
27/02:00am 14.6 11.7 6.4 58 4.1 ESE 11 17 6 9 - - 0.2
27/01:30am 14.9 12.3 6.2 56 4.4 ESE 9 15 5 8 - - 0.2
27/01:00am 14.6 12.2 5.4 54 4.5 ESE 7 13 4 7 - - 0.2
27/12:30am 14.5 12.3 5.3 54 4.5 ESE 6 9 3 5 - - 0.2
27/12:00am 14.6 12.2 5.4 54 4.5 ESE 7 13 4 7 - - 0.2
 
Date/Time
CDT
Temp
°C
App
Temp
°C
Dew
Point
°C
Rel
Hum
%
Delta-T
°C
Wind Press
QNH
hPa
Press
MSL
hPa
Rain since
9am
mm
Dir  Spd
km/h
Gust
km/h
Spd
kts
Gust
kts
26/11:30pm 14.8 12.4 5.3 53 4.7 ESE 7 9 4 5 - - 0.2
26/11:00pm 15.8 13.3 4.8 48 5.4 ESE 7 13 4 7 - - 0.2
26/10:30pm 15.5 13.0 4.8 49 5.2 ESE 7 13 4 7 - - 0.2
26/10:00pm 14.1 12.4 8.5 69 2.9 ESE 7 11 4 6 - - 0.2
26/09:30pm 14.4 12.8 8.1 66 3.3 ESE 6 11 3 6 - - 0.2
26/09:00pm 14.5 12.8 8.5 67 3.1 ESE 7 11 4 6 - - 0.2
26/08:30pm 14.8 13.0 9.4 70 2.9 ESE 9 13 5 7 - - 0.2
26/08:00pm 16.1 14.1 8.8 62 3.9 ESE 9 15 5 8 - - 0.2
26/07:30pm 17.8 15.9 8.9 56 4.8 ESE 9 13 5 7 - - 0.2
26/07:00pm 19.2 17.2 8.5 50 5.8 ESE 9 15 5 8 - - 0.2
26/06:30pm 20.8 18.9 6.7 40 7.4 ESE 6 11 3 6 - - 0.2
26/06:00pm 22.5 20.1 4.5 31 9.2 ESE 6 9 3 5 - - 0.2
26/05:30pm 23.3 20.8 3.8 28 9.8 ESE 6 9 3 5 - - 0.2
26/05:00pm 24.2 22.1 4.0 27 10.3 ESE 4 7 2 4 - - 0.2
26/04:30pm 23.7 21.2 1.4 23 10.8 E 4 9 2 5 - - 0.2
26/04:00pm 23.7 21.1 3.1 26 10.3 SE 6 11 3 6 - - 0.2
26/03:30pm 23.2 20.4 2.1 25 10.3 SE 6 13 3 7 - - 0.2
26/03:00pm 23.0 20.3 2.5 26 10.1 SE 6 11 3 6 - - 0.2
26/02:30pm 21.9 19.3 3.1 29 9.3 ESE 6 13 3 7 - - 0.2
26/02:00pm 21.7 19.4 4.7 33 8.6 SE 6 11 3 6 - - 0.2
26/01:30pm 20.5 17.6 1.4 28 9.0 SE 6 9 3 5 - - 0.2
26/01:00pm 20.4 17.7 0.3 26 9.3 E 4 7 2 4 - - 0.2
26/12:30pm 20.0 17.3 2.8 32 8.3 ESE 6 9 3 5 - - 0.2
26/12:00pm 19.0 16.7 4.7 39 7.1 ESE 6 9 3 5 - - 0.2
26/11:30am 18.1 16.0 1.6 33 7.7 SW 2 6 1 3 - - 0.2
26/11:00am 17.6 16.0 6.5 48 5.7 E 4 6 2 3 - - 0.2
26/10:30am 15.6 13.2 5.2 50 5.1 ESE 7 11 4 6 - - 0.2
26/10:00am 15.2 13.3 7.5 60 4.0 ESE 7 11 4 6 - - 0.2
26/09:30am 14.0 12.0 7.1 63 3.5 ESE 7 13 4 7 - - 0.2
26/09:00am 12.6 10.6 6.9 68 2.8 ESE 7 15 4 8 - - 0.0
26/08:30am 10.1 7.9 6.4 78 1.8 ESE 7 11 4 6 - - 0.0
26/08:00am 9.2 7.0 6.1 81 1.5 ESE 7 15 4 8 - - 0.0
26/07:30am 8.4 5.3 5.7 83 1.3 ESE 11 17 6 9 - - 0.0
26/07:00am 7.6 4.5 5.7 88 0.9 ESE 11 15 6 8 - - 0.0
26/06:30am 7.3 5.1 5.4 88 0.9 ESE 6 9 3 5 - - 0.0
26/06:00am 7.6 5.3 5.6 87 0.9 ESE 7 13 4 7 - - 0.0
26/05:30am 7.4 5.1 5.5 88 0.9 E 7 11 4 6 - - 0.0
26/05:00am 7.5 4.4 5.6 88 0.9 ESE 11 17 6 9 - - 0.0
26/04:30am 7.8 4.8 6.1 89 0.8 ESE 11 17 6 9 - - 0.0
26/04:00am 7.9 5.0 6.5 91 0.7 ESE 11 20 6 11 - - 0.0
26/03:30am 8.1 4.9 6.9 92 0.6 ESE 13 20 7 11 - - 0.0
26/03:00am 8.3 5.2 7.4 94 0.4 ESE 13 19 7 10 - - 0.0
26/02:30am 8.8 5.9 8.0 95 0.4 ESE 13 24 7 13 - - 0.0
26/02:00am 9.0 6.2 8.4 96 0.3 ESE 13 19 7 10 - - 0.0
26/01:30am 9.3 6.2 8.7 96 0.3 ESE 15 28 8 15 - - 0.0
26/01:00am 9.7 6.3 9.1 96 0.3 ESE 17 28 9 15 - - 0.0
26/12:30am 9.8 6.4 9.2 96 0.3 ESE 17 28 9 15 - - 0.0
26/12:00am 9.6 6.5 8.8 95 0.4 ESE 15 26 8 14 - - 0.0
 
Date/Time
CDT
Temp
°C
App
Temp
°C
Dew
Point
°C
Rel
Hum
%
Delta-T
°C
Wind Press
QNH
hPa
Press
MSL
hPa
Rain since
9am
mm
Dir  Spd
km/h
Gust
km/h
Spd
kts
Gust
kts
25/11:30pm 9.5 6.3 8.6 94 0.5 ESE 15 24 8 13 - - 0.0
25/11:00pm 9.8 6.3 8.9 94 0.5 ESE 17 30 9 16 - - 0.0
25/10:30pm 10.2 6.5 9.3 94 0.5 ESE 19 32 10 17 - - 0.0
25/10:00pm 10.3 7.3 9.4 94 0.5 ESE 15 26 8 14 - - 0.0
25/09:30pm 10.1 7.4 9.0 93 0.6 ESE 13 26 7 14 - - 0.0
25/09:00pm 10.3 7.2 8.9 91 0.7 ESE 15 28 8 15 - - 0.0
25/08:30pm 10.6 7.9 8.9 89 0.9 ESE 13 28 7 15 - - 0.0
25/08:00pm 11.2 8.8 8.6 84 1.3 SE 11 26 6 14 - - 0.0
25/07:30pm 12.1 9.0 8.8 80 1.7 ESE 15 30 8 16 - - 0.0
25/07:00pm 12.9 9.9 9.2 78 1.9 SE 15 26 8 14 - - 0.0

Other Formats:

Comma delimited format used in spreadsheet applications
http://www.bom.gov.au/fwo/IDS60801/IDS60801.95678.axf

JavaScript Object Notation format (JSON) in row-major order
http://www.bom.gov.au/fwo/IDS60801/IDS60801.95678.json